createdAt,value
2022-08-17T00:02:25.297Z,16.74
2022-08-17T00:04:54.810Z,16.69
2022-08-17T00:07:21.514Z,16.66
2022-08-17T00:09:48.266Z,16.64
2022-08-17T00:12:40.799Z,16.60
2022-08-17T00:15:01.717Z,16.53
2022-08-17T00:17:28.479Z,16.38
2022-08-17T00:19:55.044Z,16.47
2022-08-17T00:22:32.472Z,16.40
2022-08-17T00:25:07.301Z,16.46
2022-08-17T00:27:34.454Z,16.42
2022-08-17T00:30:01.037Z,16.44
2022-08-17T00:33:15.194Z,16.40
2022-08-17T00:35:17.641Z,16.36
2022-08-17T00:37:44.204Z,16.39
2022-08-17T00:40:13.122Z,16.47
2022-08-17T00:42:40.394Z,16.51
2022-08-17T00:45:10.106Z,16.53
2022-08-17T00:47:36.636Z,16.56
2022-08-17T00:50:05.789Z,16.61
2022-08-17T00:52:36.227Z,16.67
2022-08-17T00:55:03.748Z,16.66
2022-08-17T00:57:40.359Z,16.67
2022-08-17T01:00:15.804Z,16.63
2022-08-17T01:02:44.477Z,16.53
2022-08-17T01:05:20.686Z,16.49
2022-08-17T01:07:50.672Z,16.48
2022-08-17T01:11:00.678Z,16.45
2022-08-17T01:13:10.233Z,16.46
2022-08-17T01:15:41.399Z,16.46
2022-08-17T01:18:14.077Z,16.47
2022-08-17T01:21:04.192Z,16.46
2022-08-17T01:23:30.940Z,16.40
2022-08-17T01:25:59.854Z,16.34
2022-08-17T01:28:53.178Z,16.29
2022-08-17T01:31:17.672Z,16.30
2022-08-17T01:33:44.539Z,16.26
2022-08-17T01:36:11.174Z,16.19
2022-08-17T01:38:38.368Z,16.17
2022-08-17T01:41:14.283Z,16.17
2022-08-17T01:43:48.660Z,16.12
2022-08-17T01:46:20.105Z,16.07
2022-08-17T01:48:47.554Z,15.94
2022-08-17T01:51:15.641Z,15.89
2022-08-17T01:53:46.190Z,15.86
2022-08-17T01:56:16.330Z,15.83
2022-08-17T01:58:43.464Z,15.82
2022-08-17T02:01:10.614Z,15.76
2022-08-17T02:03:38.056Z,15.72
2022-08-17T02:06:06.056Z,15.70
2022-08-17T02:09:01.622Z,15.68
2022-08-17T02:11:30.568Z,15.63
2022-08-17T02:14:03.343Z,15.64
2022-08-17T02:16:37.027Z,15.60
2022-08-17T02:19:07.497Z,15.58
2022-08-17T02:21:34.909Z,15.58
2022-08-17T02:24:01.699Z,15.59
2022-08-17T02:26:28.376Z,15.61
2022-08-17T02:28:55.028Z,15.61
2022-08-17T02:31:21.655Z,15.59
2022-08-17T02:33:56.680Z,15.63
2022-08-17T02:36:31.168Z,15.55
2022-08-17T02:38:58.692Z,15.51
2022-08-17T02:41:25.514Z,15.50
2022-08-17T02:43:53.197Z,15.42
2022-08-17T02:46:19.793Z,15.37
2022-08-17T02:48:46.455Z,15.30
2022-08-17T02:51:13.040Z,15.23
2022-08-17T02:53:39.604Z,15.17
2022-08-17T02:56:06.367Z,15.06
2022-08-17T02:58:34.920Z,14.99
2022-08-17T03:01:03.308Z,15.01
2022-08-17T03:03:30.063Z,15.07
2022-08-17T03:05:56.666Z,15.10
2022-08-17T03:08:23.894Z,15.14
2022-08-17T03:10:50.581Z,15.19
2022-08-17T03:13:17.693Z,15.25
2022-08-17T03:15:45.872Z,15.22
2022-08-17T03:18:19.078Z,15.12
2022-08-17T03:20:52.351Z,15.07
2022-08-17T03:23:18.979Z,15.10
2022-08-17T03:25:53.062Z,15.05
2022-08-17T03:28:20.851Z,15.04
2022-08-17T03:30:47.419Z,15.03
2022-08-17T03:33:14.311Z,14.99
2022-08-17T03:35:41.740Z,14.92
2022-08-17T03:38:10.300Z,14.86
2022-08-17T03:40:56.853Z,14.82
2022-08-17T03:43:24.324Z,14.83
2022-08-17T03:46:28.896Z,14.88
2022-08-17T03:49:15.666Z,14.87
2022-08-17T03:52:00.878Z,14.90
2022-08-17T03:54:45.919Z,14.85
2022-08-17T03:57:13.101Z,14.94
2022-08-17T03:59:40.864Z,14.91
2022-08-17T04:02:20.474Z,14.94
2022-08-17T04:04:50.913Z,14.90
2022-08-17T04:07:19.579Z,14.95
2022-08-17T04:09:46.123Z,14.93
2022-08-17T04:12:15.289Z,14.85
2022-08-17T04:14:52.609Z,14.88
2022-08-17T04:17:25.908Z,14.87
2022-08-17T04:19:53.975Z,14.90
2022-08-17T04:22:30.042Z,14.94
2022-08-17T04:25:01.313Z,15.01
2022-08-17T04:27:27.887Z,15.01
2022-08-17T04:29:55.963Z,15.08
2022-08-17T04:32:58.504Z,15.13
2022-08-17T04:35:09.940Z,15.13
2022-08-17T04:37:36.541Z,15.20
2022-08-17T04:40:22.706Z,15.26
2022-08-17T04:43:07.550Z,15.28
2022-08-17T04:45:34.957Z,15.32
2022-08-17T04:48:01.616Z,15.42
2022-08-17T04:50:28.297Z,15.49
2022-08-17T04:52:55.181Z,15.49
2022-08-17T04:55:22.137Z,15.59
2022-08-17T04:57:48.813Z,15.61
2022-08-17T05:00:15.680Z,15.60
2022-08-17T05:02:50.600Z,15.68
2022-08-17T05:05:21.898Z,15.73
2022-08-17T05:07:52.654Z,15.78
2022-08-17T05:10:20.027Z,15.68
2022-08-17T05:12:46.639Z,15.63
2022-08-17T05:15:16.174Z,15.65
2022-08-17T05:17:43.432Z,15.78
2022-08-17T05:20:10.452Z,15.86
2022-08-17T05:22:58.684Z,15.94
2022-08-17T05:25:33.303Z,16.05
2022-08-17T05:28:03.213Z,16.20
2022-08-17T05:30:29.976Z,16.29
2022-08-17T05:32:59.772Z,16.38
2022-08-17T05:35:28.088Z,16.46
2022-08-17T05:37:54.839Z,16.54
2022-08-17T05:40:25.918Z,16.64
2022-08-17T05:43:03.875Z,16.69
2022-08-17T05:45:54.824Z,16.86
2022-08-17T05:48:18.223Z,17.07
2022-08-17T05:51:20.065Z,17.26
2022-08-17T05:53:47.728Z,17.45
2022-08-17T05:56:29.823Z,17.63
2022-08-17T05:59:23.325Z,17.66
2022-08-17T06:02:02.976Z,17.73
2022-08-17T06:05:02.733Z,17.92
2022-08-17T06:07:47.908Z,18.01
2022-08-17T06:10:23.370Z,18.11
2022-08-17T06:13:09.569Z,18.27
2022-08-17T06:16:33.341Z,18.45
2022-08-17T06:19:17.784Z,18.55
2022-08-17T06:21:49.280Z,18.72
2022-08-17T06:24:34.296Z,18.96
2022-08-17T06:27:33.175Z,19.13
2022-08-17T06:30:09.294Z,19.18
2022-08-17T06:32:42.586Z,19.39
2022-08-17T06:35:12.834Z,19.46
2022-08-17T06:37:59.651Z,19.49
2022-08-17T06:40:26.223Z,19.60
2022-08-17T06:43:48.423Z,19.62
2022-08-17T06:46:27.543Z,19.64
2022-08-17T06:48:57.027Z,19.76
2022-08-17T06:51:29.403Z,19.89
2022-08-17T06:54:05.735Z,20.05
2022-08-17T06:56:55.312Z,20.12
2022-08-17T06:59:54.799Z,20.17
2022-08-17T07:02:52.249Z,20.40
2022-08-17T07:05:21.896Z,20.65
2022-08-17T07:08:02.307Z,20.97
2022-08-17T07:10:41.411Z,21.21
2022-08-17T07:13:19.435Z,21.32
2022-08-17T07:15:47.426Z,21.34
2022-08-17T07:18:14.215Z,21.48
2022-08-17T07:20:42.903Z,21.86
2022-08-17T07:23:22.711Z,22.43
2022-08-17T07:25:50.345Z,22.99
2022-08-17T07:28:22.909Z,23.15
2022-08-17T07:30:54.118Z,23.07
2022-08-17T07:33:27.488Z,23.00
2022-08-17T07:35:54.302Z,23.01
2022-08-17T07:38:26.892Z,23.07
2022-08-17T07:41:05.230Z,23.04
2022-08-17T07:43:45.696Z,23.16
2022-08-17T07:46:53.761Z,23.27
2022-08-17T07:49:32.431Z,23.52
2022-08-17T07:52:24.044Z,23.85
2022-08-17T07:54:49.134Z,24.21
2022-08-17T07:57:15.707Z,24.68
2022-08-17T08:00:12.614Z,24.86
2022-08-17T08:02:47.336Z,24.95
2022-08-17T08:05:31.723Z,25.47
2022-08-17T08:08:42.319Z,25.45
2022-08-17T08:11:13.111Z,25.45
2022-08-17T08:13:43.616Z,25.68
2022-08-17T08:16:15.190Z,25.91
2022-08-17T08:18:55.770Z,26.20
2022-08-17T08:21:47.223Z,26.37
2022-08-17T08:24:30.802Z,26.29
2022-08-17T08:27:35.687Z,26.03
2022-08-17T08:30:33.091Z,25.66
2022-08-17T08:33:56.232Z,25.72
2022-08-17T08:37:12.748Z,25.58
2022-08-17T08:39:52.047Z,25.72
2022-08-17T08:42:33.222Z,25.90
2022-08-17T08:45:04.485Z,25.99
2022-08-17T08:47:35.407Z,26.12
2022-08-17T08:50:37.653Z,25.91
2022-08-17T08:53:43.606Z,26.00
2022-08-17T08:56:16.182Z,26.22
2022-08-17T08:59:21.433Z,26.44
2022-08-17T09:02:16.717Z,26.47
2022-08-17T09:05:14.444Z,25.74
2022-08-17T09:07:49.782Z,25.35
2022-08-17T09:10:29.804Z,25.22
2022-08-17T09:13:10.275Z,25.17
2022-08-17T09:15:47.115Z,25.20
2022-08-17T09:19:02.448Z,25.31
2022-08-17T09:21:14.900Z,25.24
2022-08-17T09:23:59.421Z,25.35
2022-08-17T09:26:30.455Z,25.17
2022-08-17T09:29:06.997Z,25.16
2022-08-17T09:31:46.500Z,25.03
2022-08-17T09:34:18.326Z,25.02
2022-08-17T09:36:52.086Z,24.88
2022-08-17T09:39:31.027Z,24.96
2022-08-17T09:42:08.416Z,24.85
2022-08-17T09:44:41.214Z,24.97
2022-08-17T09:47:12.766Z,24.67
2022-08-17T09:49:47.448Z,24.37
2022-08-17T09:52:18.133Z,24.22
2022-08-17T09:54:45.421Z,24.20
2022-08-17T09:57:30.347Z,24.22
2022-08-17T09:59:57.140Z,24.29
2022-08-17T10:02:38.592Z,24.40
2022-08-17T10:05:15.289Z,24.50
2022-08-17T10:07:47.661Z,24.56
2022-08-17T10:10:26.162Z,24.63
2022-08-17T10:13:01.706Z,24.79
2022-08-17T10:15:33.458Z,24.81
2022-08-17T10:18:18.940Z,24.57
2022-08-17T10:21:25.110Z,24.38
2022-08-17T10:24:15.853Z,24.39
2022-08-17T10:26:57.248Z,24.24
2022-08-17T10:29:48.984Z,24.12
2022-08-17T10:32:46.553Z,24.09
2022-08-17T10:35:29.554Z,24.03
2022-08-17T10:38:15.413Z,23.98
2022-08-17T10:41:07.257Z,24.12
2022-08-17T10:44:28.561Z,24.54
2022-08-17T10:47:02.792Z,25.14
2022-08-17T10:49:54.056Z,25.38
2022-08-17T10:52:20.973Z,25.53
2022-08-17T10:54:59.048Z,25.67
2022-08-17T10:57:34.449Z,25.84
2022-08-17T11:00:03.632Z,26.11
2022-08-17T11:02:41.306Z,26.30
2022-08-17T11:05:28.951Z,26.24
2022-08-17T11:08:05.492Z,26.36
2022-08-17T11:11:09.216Z,26.38
2022-08-17T11:14:17.325Z,26.51
2022-08-17T11:17:20.614Z,26.58
2022-08-17T11:20:20.313Z,26.26
2022-08-17T11:23:14.746Z,26.26
2022-08-17T11:26:04.112Z,26.17
2022-08-17T11:28:44.415Z,26.03
2022-08-17T11:31:38.386Z,25.98
2022-08-17T11:34:12.117Z,26.34
2022-08-17T11:36:48.980Z,26.26
2022-08-17T11:39:24.491Z,26.08
2022-08-17T11:42:19.968Z,25.97
2022-08-17T11:45:32.077Z,25.86
2022-08-17T11:48:41.464Z,25.99
2022-08-17T11:51:33.815Z,26.18
2022-08-17T11:54:31.783Z,26.27
2022-08-17T11:56:53.357Z,26.68
2022-08-17T11:59:50.293Z,26.72
2022-08-17T12:02:19.835Z,26.60
2022-08-17T12:05:21.027Z,26.63
2022-08-17T12:07:54.805Z,26.04
2022-08-17T12:10:31.613Z,25.57
2022-08-17T12:13:00.182Z,25.43
2022-08-17T12:15:36.699Z,25.73
2022-08-17T12:18:03.518Z,25.86
2022-08-17T12:20:37.303Z,26.07
2022-08-17T12:23:21.166Z,26.32
2022-08-17T12:25:58.198Z,26.48
2022-08-17T12:28:27.874Z,26.49
2022-08-17T12:31:05.485Z,26.62
2022-08-17T12:33:32.088Z,27.15
2022-08-17T12:36:05.437Z,29.33
2022-08-17T12:38:37.347Z,31.54
2022-08-17T12:41:27.467Z,33.27
2022-08-17T12:44:01.543Z,34.33
2022-08-17T12:46:34.807Z,35.26
2022-08-17T12:49:32.803Z,34.72
2022-08-17T12:52:12.690Z,34.58
2022-08-17T12:54:48.698Z,37.21
2022-08-17T12:57:18.596Z,36.64
2022-08-17T12:59:49.287Z,34.11
2022-08-17T13:02:28.394Z,32.10
2022-08-17T13:04:57.332Z,32.07
2022-08-17T13:07:29.086Z,33.01
2022-08-17T13:09:55.682Z,33.08
2022-08-17T13:12:34.575Z,32.77
2022-08-17T13:15:01.399Z,34.20
2022-08-17T13:17:31.880Z,34.33
2022-08-17T13:19:58.317Z,33.03
2022-08-17T13:22:26.480Z,33.89
2022-08-17T13:24:58.664Z,35.16
2022-08-17T13:27:27.145Z,34.25
2022-08-17T13:29:57.513Z,32.59
2022-08-17T13:32:44.308Z,31.09
2022-08-17T13:35:50.321Z,30.36
2022-08-17T13:38:36.539Z,29.94
2022-08-17T13:41:04.038Z,29.06
2022-08-17T13:43:44.440Z,28.22
2022-08-17T13:46:22.679Z,28.53
2022-08-17T13:49:05.301Z,28.59
2022-08-17T13:51:43.222Z,28.33
2022-08-17T13:54:36.640Z,28.35
2022-08-17T13:57:06.691Z,28.13
2022-08-17T13:59:54.804Z,28.30
2022-08-17T14:02:23.100Z,28.34
2022-08-17T14:04:55.634Z,28.14
2022-08-17T14:07:27.689Z,27.80
2022-08-17T14:09:59.018Z,27.67
2022-08-17T14:12:28.340Z,27.92
2022-08-17T14:14:56.392Z,28.28
2022-08-17T14:17:24.517Z,28.39
2022-08-17T14:19:51.485Z,28.50
2022-08-17T14:22:31.429Z,28.49
2022-08-17T14:24:59.142Z,28.31
2022-08-17T14:27:28.183Z,28.11
2022-08-17T14:29:55.661Z,28.18
2022-08-17T14:32:25.464Z,28.60
2022-08-17T14:34:52.766Z,28.90
2022-08-17T14:37:21.022Z,29.36
2022-08-17T14:39:47.679Z,29.82
2022-08-17T14:42:15.549Z,29.81
2022-08-17T14:44:42.095Z,29.18
2022-08-17T14:47:15.895Z,29.33
2022-08-17T14:49:42.578Z,29.52
2022-08-17T14:52:10.734Z,29.66
2022-08-17T14:54:37.651Z,29.73
2022-08-17T14:57:24.638Z,29.62
2022-08-17T14:59:55.129Z,29.68
2022-08-17T15:02:29.934Z,29.57
2022-08-17T15:05:02.055Z,29.60
2022-08-17T15:07:30.680Z,29.62
2022-08-17T15:09:58.754Z,29.43
2022-08-17T15:12:32.013Z,29.49
2022-08-17T15:15:00.648Z,29.80
2022-08-17T15:17:27.228Z,30.16
2022-08-17T15:20:17.838Z,30.68
2022-08-17T15:22:45.781Z,30.73
2022-08-17T15:25:12.961Z,30.74
2022-08-17T15:27:40.406Z,30.47
2022-08-17T15:30:07.877Z,30.12
2022-08-17T15:32:37.946Z,29.52
2022-08-17T15:35:05.976Z,29.14
2022-08-17T15:37:32.542Z,28.77
2022-08-17T15:40:01.247Z,28.37
2022-08-17T15:42:27.995Z,27.98
2022-08-17T15:44:57.373Z,27.68
2022-08-17T15:47:24.506Z,27.50
2022-08-17T15:49:51.095Z,27.37
2022-08-17T15:52:29.644Z,27.11
2022-08-17T15:54:59.799Z,27.03
2022-08-17T15:57:27.387Z,26.84
2022-08-17T15:59:58.397Z,26.76
2022-08-17T16:03:45.549Z,26.69
2022-08-17T16:05:21.922Z,26.69
2022-08-17T16:07:51.985Z,26.63
2022-08-17T16:10:19.422Z,26.58
2022-08-17T16:12:47.543Z,26.54
2022-08-17T16:15:14.702Z,26.56
2022-08-17T16:17:44.014Z,26.47
2022-08-17T16:20:20.357Z,26.29
2022-08-17T16:22:48.664Z,26.21
2022-08-17T16:25:21.090Z,26.17
2022-08-17T16:27:53.397Z,26.10
2022-08-17T16:30:22.973Z,26.00
2022-08-17T16:32:51.408Z,25.85
2022-08-17T16:35:20.515Z,25.75
2022-08-17T16:37:47.989Z,25.73
2022-08-17T16:40:16.660Z,25.71
2022-08-17T16:42:45.302Z,25.71
2022-08-17T16:45:20.956Z,25.69
2022-08-17T16:47:50.279Z,25.61
2022-08-17T16:50:20.523Z,25.61
2022-08-17T16:52:48.499Z,25.66
2022-08-17T16:55:17.990Z,25.72
2022-08-17T16:57:48.572Z,25.53
2022-08-17T17:00:18.252Z,25.37
2022-08-17T17:02:47.287Z,25.27
2022-08-17T17:05:44.817Z,25.12
2022-08-17T17:08:26.706Z,25.00
2022-08-17T17:10:55.909Z,24.93
2022-08-17T17:13:29.343Z,24.85
2022-08-17T17:16:21.748Z,24.72
2022-08-17T17:19:09.288Z,24.63
2022-08-17T17:21:47.360Z,24.48
2022-08-17T17:24:17.278Z,24.35
2022-08-17T17:27:07.323Z,24.21
2022-08-17T17:29:48.526Z,24.08
2022-08-17T17:32:25.599Z,23.99
2022-08-17T17:34:58.752Z,23.88
2022-08-17T17:37:32.601Z,23.75
2022-08-17T17:40:04.093Z,23.76
2022-08-17T17:42:32.234Z,23.67
2022-08-17T17:45:32.781Z,23.65
2022-08-17T17:47:59.302Z,23.50
2022-08-17T17:50:51.660Z,23.34
2022-08-17T17:53:35.207Z,23.24
2022-08-17T17:56:43.007Z,23.13
2022-08-17T17:59:12.750Z,23.10
2022-08-17T18:01:59.642Z,22.96
2022-08-17T18:04:31.894Z,22.84
2022-08-17T18:07:10.146Z,22.74
2022-08-17T18:10:01.250Z,22.66
2022-08-17T18:12:44.428Z,22.49
2022-08-17T18:15:34.788Z,22.35
2022-08-17T18:18:14.599Z,22.26
2022-08-17T18:20:53.137Z,22.15
2022-08-17T18:23:27.687Z,22.12
2022-08-17T18:25:55.063Z,22.05
2022-08-17T18:28:31.354Z,21.90
2022-08-17T18:31:19.243Z,21.76
2022-08-17T18:33:52.375Z,21.67
2022-08-17T18:36:28.205Z,21.49
2022-08-17T18:39:17.130Z,21.48
2022-08-17T18:41:47.319Z,21.35
2022-08-17T18:44:38.030Z,21.19
2022-08-17T18:47:12.968Z,21.10
2022-08-17T18:49:40.522Z,21.01
2022-08-17T18:52:13.086Z,20.99
2022-08-17T18:54:39.755Z,20.84
2022-08-17T18:57:07.607Z,20.76
2022-08-17T18:59:43.963Z,20.69
2022-08-17T19:02:24.867Z,20.66
2022-08-17T19:05:09.752Z,20.56
2022-08-17T19:07:45.226Z,20.46
2022-08-17T19:10:28.845Z,20.44
2022-08-17T19:13:12.546Z,20.45
2022-08-17T19:15:47.847Z,20.37
2022-08-17T19:18:41.506Z,20.29
2022-08-17T19:21:17.102Z,20.26
2022-08-17T19:24:12.208Z,20.14
2022-08-17T19:26:54.709Z,20.04
2022-08-17T19:29:58.116Z,19.92
2022-08-17T19:32:31.235Z,19.78
2022-08-17T19:34:58.183Z,19.71
2022-08-17T19:37:32.618Z,19.69
2022-08-17T19:40:48.944Z,19.54
2022-08-17T19:43:43.186Z,19.41
2022-08-17T19:46:24.563Z,19.31
2022-08-17T19:48:54.075Z,19.05
2022-08-17T19:51:34.261Z,18.94
2022-08-17T19:54:09.928Z,18.89
2022-08-17T19:56:51.687Z,18.85
2022-08-17T19:59:35.980Z,18.74
2022-08-17T20:02:41.976Z,18.68
2022-08-17T20:05:15.593Z,18.64
2022-08-17T20:07:53.329Z,18.52
2022-08-17T20:10:48.006Z,18.36
2022-08-17T20:13:33.179Z,18.28
2022-08-17T20:16:01.377Z,18.27
2022-08-17T20:18:34.015Z,18.22
2022-08-17T20:21:21.225Z,18.10
2022-08-17T20:23:55.884Z,18.07
2022-08-17T20:26:28.820Z,18.08
2022-08-17T20:29:04.393Z,18.02
2022-08-17T20:31:52.507Z,17.95
2022-08-17T20:34:34.860Z,17.88
2022-08-17T20:37:06.148Z,17.86
2022-08-17T20:39:40.674Z,17.72
2022-08-17T20:42:10.110Z,17.75
2022-08-17T20:44:39.127Z,17.77
2022-08-17T20:47:07.897Z,17.85
2022-08-17T20:49:47.239Z,17.70
2022-08-17T20:52:18.376Z,17.61
2022-08-17T20:54:47.131Z,17.58
2022-08-17T20:57:43.794Z,17.49
2022-08-17T21:00:16.840Z,17.44
2022-08-17T21:02:49.599Z,17.43
2022-08-17T21:05:26.118Z,17.32
2022-08-17T21:07:59.970Z,17.23
2022-08-17T21:10:26.447Z,17.18
2022-08-17T21:12:59.645Z,17.11
2022-08-17T21:15:44.966Z,17.08
2022-08-17T21:18:39.222Z,16.93
2022-08-17T21:21:24.447Z,16.86
2022-08-17T21:24:15.313Z,16.78
2022-08-17T21:27:06.578Z,16.80
2022-08-17T21:29:34.038Z,16.79
2022-08-17T21:32:06.671Z,16.81
2022-08-17T21:34:42.583Z,16.83
2022-08-17T21:37:31.099Z,16.74
2022-08-17T21:40:12.973Z,16.77
2022-08-17T21:42:46.795Z,16.65
2022-08-17T21:45:35.035Z,16.58
2022-08-17T21:48:20.166Z,16.40
2022-08-17T21:50:57.903Z,16.29
2022-08-17T21:53:32.697Z,16.18
2022-08-17T21:55:59.822Z,16.19
2022-08-17T21:58:33.721Z,16.23
2022-08-17T22:01:25.322Z,16.21
2022-08-17T22:04:25.808Z,16.20
2022-08-17T22:06:57.161Z,16.13
2022-08-17T22:09:41.393Z,16.11
2022-08-17T22:12:16.491Z,16.07
2022-08-17T22:14:52.889Z,16.07
2022-08-17T22:17:35.993Z,16.05
2022-08-17T22:20:13.092Z,16.08
2022-08-17T22:23:04.491Z,16.10
2022-08-17T22:25:33.313Z,16.05
2022-08-17T22:28:02.636Z,16.03
2022-08-17T22:30:34.464Z,16.05
2022-08-17T22:33:22.582Z,16.04
2022-08-17T22:35:49.905Z,16.08
2022-08-17T22:38:18.930Z,16.08
2022-08-17T22:40:54.343Z,16.08
2022-08-17T22:43:26.197Z,16.09
2022-08-17T22:45:56.078Z,16.09
2022-08-17T22:48:27.189Z,16.04
2022-08-17T22:51:03.107Z,15.99
2022-08-17T22:54:04.453Z,15.97
2022-08-17T22:56:49.885Z,15.92
2022-08-17T22:59:36.159Z,15.88
2022-08-17T23:02:16.422Z,15.87
2022-08-17T23:04:47.676Z,15.82
2022-08-17T23:07:14.682Z,15.76
2022-08-17T23:09:41.361Z,15.76
2022-08-17T23:12:11.612Z,15.76
2022-08-17T23:14:40.973Z,15.79
2022-08-17T23:17:08.341Z,15.77
2022-08-17T23:19:35.447Z,15.69
2022-08-17T23:22:04.287Z,15.66
2022-08-17T23:24:35.584Z,15.72
2022-08-17T23:27:01.996Z,15.76
2022-08-17T23:29:29.588Z,15.82
2022-08-17T23:31:57.923Z,15.75
2022-08-17T23:34:25.606Z,15.78
2022-08-17T23:36:53.145Z,15.74
2022-08-17T23:39:24.441Z,15.71
2022-08-17T23:41:53.513Z,15.69
2022-08-17T23:44:23.399Z,15.68
2022-08-17T23:46:53.520Z,15.69
2022-08-17T23:49:20.124Z,15.77
2022-08-17T23:51:48.024Z,15.79
2022-08-17T23:54:26.020Z,15.80
2022-08-17T23:56:52.892Z,15.72
2022-08-17T23:59:21.599Z,15.71
